メインページ
METAR-TAF:

METAR-TAF

空港 :

アレンタウン, ペンシルバニア州, アメリカ合衆国

緯度: 40-39-03N, 経度: 075-26-57W, 海抜: 120m

現時点の気象観測

当レポートは36分前の15:51(UTC)に作成
無風
気温 24°C
湿度 61%
気圧 1023 hPa
視程: 16.1km
晴天

METAR: KABE 261551Z 00000KT 10SM CLR 24/16 A3021 RMK AO2 SLP228 T02390161

時間: 12:27 (16:27 UTC)

予報

当レポートは2時間36分前の13:51(UTC)に作成
予報は26日の 14時(UTC)から 27日の 12時(UTC)まで有効
変向風 2kt
視程: 10km
高度4500ftの雲は散在している
26日の 1900時(UTC)から
の風 6kt
視程: 10km
高度12000ftの雲は散在している
27日の 0000時(UTC)から
変向風 3kt
視程: 10km
高度15000ftの雲は散在している
27日の 0800時(UTC)から
変向風 2kt
視程: 8.0km
高度1500ftの千切れ雲あり

TAF: KABE 261351Z 2614/2712 VRB02KT P6SM SCT045 FM261900 19006KT P6SM SCT120 FM270000 VRB03KT P6SM SCT150 FM270800 VRB02KT 5SM BR BKN015

4,000以上の空港の気象観測と天気予報(METAR報とTAF報)

利用可能な観測所は地図上に黄色い丸と赤い丸で示す。

丸の上にカーソルを重ねると観測所名を参照できる。

次にクリックすると気象観測と天気予報を参照できる。

マップの切り替え:黒色「×」印の緑ボタンをクリックして拡大、「-」印の緑ボタンをクリックして縮小、緑色の三角印をクリックして隣りの地図に切り替え


METAR-TAF: